sensor_id;sensor_type;location;lat;lon;timestamp;P1;durP1;ratioP1;P2;durP2;ratioP2
23768;SDS011;12064;50.890;5.424;2022-09-12T00:05:13;2.80;;;2.60;;
23768;SDS011;12064;50.890;5.424;2022-09-12T00:14:04;2.67;;;2.58;;
23768;SDS011;12064;50.890;5.424;2022-09-12T00:22:56;2.63;;;2.47;;
23768;SDS011;12064;50.890;5.424;2022-09-12T00:31:46;3.07;;;2.73;;
23768;SDS011;12064;50.890;5.424;2022-09-12T00:40:40;2.78;;;2.55;;
23768;SDS011;12064;50.890;5.424;2022-09-12T00:58:39;2.72;;;2.30;;
23768;SDS011;12064;50.890;5.424;2022-09-12T01:07:36;2.80;;;2.60;;
23768;SDS011;12064;50.890;5.424;2022-09-12T01:16:28;2.33;;;2.22;;
23768;SDS011;12064;50.890;5.424;2022-09-12T01:34:52;2.90;;;2.50;;
23768;SDS011;12064;50.890;5.424;2022-09-12T01:53:01;2.45;;;2.10;;
23768;SDS011;12064;50.890;5.424;2022-09-12T02:02:00;2.35;;;2.20;;
23768;SDS011;12064;50.890;5.424;2022-09-12T02:11:00;2.63;;;2.20;;
23768;SDS011;12064;50.890;5.424;2022-09-12T02:20:09;2.30;;;2.10;;
23768;SDS011;12064;50.890;5.424;2022-09-12T02:29:08;2.17;;;2.05;;
23768;SDS011;12064;50.890;5.424;2022-09-12T02:38:08;2.28;;;2.08;;
23768;SDS011;12064;50.890;5.424;2022-09-12T02:47:26;2.22;;;2.13;;
23768;SDS011;12064;50.890;5.424;2022-09-12T02:56:46;2.20;;;2.10;;
23768;SDS011;12064;50.890;5.424;2022-09-12T03:05:39;2.15;;;2.05;;
23768;SDS011;12064;50.890;5.424;2022-09-12T03:15:06;2.20;;;2.10;;
23768;SDS011;12064;50.890;5.424;2022-09-12T03:33:23;2.20;;;2.10;;
23768;SDS011;12064;50.890;5.424;2022-09-12T03:42:15;2.30;;;2.20;;
23768;SDS011;12064;50.890;5.424;2022-09-12T03:51:06;2.60;;;2.40;;
23768;SDS011;12064;50.890;5.424;2022-09-12T04:09:27;2.30;;;2.20;;
23768;SDS011;12064;50.890;5.424;2022-09-12T04:18:18;2.85;;;2.30;;
23768;SDS011;12064;50.890;5.424;2022-09-12T04:27:09;2.40;;;2.10;;
23768;SDS011;12064;50.890;5.424;2022-09-12T04:36:06;3.73;;;2.13;;
23768;SDS011;12064;50.890;5.424;2022-09-12T04:45:03;2.30;;;2.20;;
23768;SDS011;12064;50.890;5.424;2022-09-12T05:03:28;2.35;;;2.13;;
23768;SDS011;12064;50.890;5.424;2022-09-12T05:12:22;2.28;;;2.03;;
23768;SDS011;12064;50.890;5.424;2022-09-12T05:21:18;2.25;;;2.10;;
23768;SDS011;12064;50.890;5.424;2022-09-12T05:30:11;2.50;;;2.00;;
23768;SDS011;12064;50.890;5.424;2022-09-12T05:39:02;2.40;;;2.28;;
23768;SDS011;12064;50.890;5.424;2022-09-12T05:47:53;3.47;;;2.70;;
23768;SDS011;12064;50.890;5.424;2022-09-12T05:56:44;3.10;;;2.80;;
23768;SDS011;12064;50.890;5.424;2022-09-12T06:14:36;2.80;;;2.60;;
23768;SDS011;12064;50.890;5.424;2022-09-12T06:23:30;2.90;;;2.70;;
23768;SDS011;12064;50.890;5.424;2022-09-12T06:32:20;2.90;;;2.70;;
23768;SDS011;12064;50.890;5.424;2022-09-12T06:41:11;3.10;;;2.90;;
23768;SDS011;12064;50.890;5.424;2022-09-12T06:50:02;3.20;;;3.00;;
23768;SDS011;12064;50.890;5.424;2022-09-12T06:58:57;3.20;;;3.00;;
23768;SDS011;12064;50.890;5.424;2022-09-12T07:07:48;3.25;;;3.05;;
23768;SDS011;12064;50.890;5.424;2022-09-12T07:16:38;3.80;;;3.50;;
23768;SDS011;12064;50.890;5.424;2022-09-12T07:25:29;5.28;;;3.50;;
23768;SDS011;12064;50.890;5.424;2022-09-12T07:43:47;4.60;;;3.17;;
23768;SDS011;12064;50.890;5.424;2022-09-12T07:52:56;4.78;;;3.50;;
23768;SDS011;12064;50.890;5.424;2022-09-12T08:01:47;11.57;;;5.55;;
23768;SDS011;12064;50.890;5.424;2022-09-12T08:10:40;13.48;;;5.45;;
23768;SDS011;12064;50.890;5.424;2022-09-12T08:19:34;11.90;;;4.93;;
23768;SDS011;12064;50.890;5.424;2022-09-12T08:28:31;8.52;;;4.63;;
23768;SDS011;12064;50.890;5.424;2022-09-12T08:37:22;9.98;;;5.07;;
23768;SDS011;12064;50.890;5.424;2022-09-12T08:46:15;8.93;;;5.13;;
23768;SDS011;12064;50.890;5.424;2022-09-12T08:55:19;7.90;;;4.50;;
23768;SDS011;12064;50.890;5.424;2022-09-12T09:32:14;6.60;;;4.25;;
23768;SDS011;12064;50.890;5.424;2022-09-12T10:00:24;5.10;;;3.40;;
23768;SDS011;12064;50.890;5.424;2022-09-12T10:09:29;4.43;;;3.60;;
23768;SDS011;12064;50.890;5.424;2022-09-12T10:27:29;5.47;;;3.60;;
23768;SDS011;12064;50.890;5.424;2022-09-12T10:36:21;5.03;;;3.33;;
23768;SDS011;12064;50.890;5.424;2022-09-12T10:54:18;4.18;;;3.50;;
23768;SDS011;12064;50.890;5.424;2022-09-12T11:12:39;3.33;;;3.00;;
23768;SDS011;12064;50.890;5.424;2022-09-12T11:21:42;4.35;;;3.42;;
23768;SDS011;12064;50.890;5.424;2022-09-12T11:30:51;4.85;;;3.50;;
23768;SDS011;12064;50.890;5.424;2022-09-12T11:39:58;4.32;;;3.20;;
23768;SDS011;12064;50.890;5.424;2022-09-12T11:58:56;3.88;;;3.30;;
23768;SDS011;12064;50.890;5.424;2022-09-12T12:07:56;4.47;;;3.25;;
23768;SDS011;12064;50.890;5.424;2022-09-12T12:16:48;4.82;;;3.20;;
23768;SDS011;12064;50.890;5.424;2022-09-12T12:25:52;4.38;;;3.20;;
23768;SDS011;12064;50.890;5.424;2022-09-12T12:34:45;4.53;;;3.30;;
23768;SDS011;12064;50.890;5.424;2022-09-12T12:43:36;3.67;;;3.05;;
23768;SDS011;12064;50.890;5.424;2022-09-12T12:52:30;3.15;;;2.92;;
23768;SDS011;12064;50.890;5.424;2022-09-12T13:01:31;3.58;;;3.28;;
23768;SDS011;12064;50.890;5.424;2022-09-12T13:10:29;3.03;;;2.75;;
23768;SDS011;12064;50.890;5.424;2022-09-12T13:19:22;2.80;;;2.60;;
23768;SDS011;12064;50.890;5.424;2022-09-12T13:28:18;3.13;;;2.80;;
23768;SDS011;12064;50.890;5.424;2022-09-12T13:46:33;3.70;;;2.80;;
23768;SDS011;12064;50.890;5.424;2022-09-12T13:55:31;3.40;;;2.78;;
23768;SDS011;12064;50.890;5.424;2022-09-12T14:04:28;2.60;;;2.38;;
23768;SDS011;12064;50.890;5.424;2022-09-12T14:13:37;2.30;;;2.05;;
23768;SDS011;12064;50.890;5.424;2022-09-12T14:22:28;3.10;;;2.00;;
23768;SDS011;12064;50.890;5.424;2022-09-12T14:49:44;1.80;;;1.70;;
23768;SDS011;12064;50.890;5.424;2022-09-12T14:58:35;2.13;;;1.90;;
23768;SDS011;12064;50.890;5.424;2022-09-12T15:07:32;2.30;;;2.10;;
23768;SDS011;12064;50.890;5.424;2022-09-12T15:16:26;2.05;;;1.80;;
23768;SDS011;12064;50.890;5.424;2022-09-12T15:25:19;1.83;;;1.73;;
23768;SDS011;12064;50.890;5.424;2022-09-12T15:34:10;2.40;;;2.00;;
23768;SDS011;12064;50.890;5.424;2022-09-12T15:43:01;1.80;;;1.70;;
23768;SDS011;12064;50.890;5.424;2022-09-12T15:51:52;1.70;;;1.60;;
23768;SDS011;12064;50.890;5.424;2022-09-12T16:00:45;1.70;;;1.60;;
23768;SDS011;12064;50.890;5.424;2022-09-12T16:09:45;1.60;;;1.50;;
23768;SDS011;12064;50.890;5.424;2022-09-12T16:18:39;1.97;;;1.63;;
23768;SDS011;12064;50.890;5.424;2022-09-12T16:27:33;1.73;;;1.63;;
23768;SDS011;12064;50.890;5.424;2022-09-12T16:36:24;2.00;;;1.90;;
23768;SDS011;12064;50.890;5.424;2022-09-12T16:45:15;1.80;;;1.70;;
23768;SDS011;12064;50.890;5.424;2022-09-12T16:54:05;1.60;;;1.50;;
23768;SDS011;12064;50.890;5.424;2022-09-12T17:11:53;1.67;;;1.57;;
23768;SDS011;12064;50.890;5.424;2022-09-12T17:20:44;1.65;;;1.55;;
23768;SDS011;12064;50.890;5.424;2022-09-12T17:29:35;1.80;;;1.70;;
23768;SDS011;12064;50.890;5.424;2022-09-12T17:38:27;2.17;;;1.50;;
23768;SDS011;12064;50.890;5.424;2022-09-12T17:47:23;1.77;;;1.50;;
23768;SDS011;12064;50.890;5.424;2022-09-12T17:56:16;2.17;;;1.80;;
23768;SDS011;12064;50.890;5.424;2022-09-12T18:05:08;4.25;;;2.10;;
23768;SDS011;12064;50.890;5.424;2022-09-12T18:14:11;5.78;;;2.65;;
23768;SDS011;12064;50.890;5.424;2022-09-12T18:23:02;4.45;;;2.58;;
23768;SDS011;12064;50.890;5.424;2022-09-12T18:31:57;7.72;;;3.15;;
23768;SDS011;12064;50.890;5.424;2022-09-12T18:40:48;8.85;;;3.60;;
23768;SDS011;12064;50.890;5.424;2022-09-12T18:49:38;13.97;;;5.37;;
23768;SDS011;12064;50.890;5.424;2022-09-12T18:58:29;6.73;;;3.27;;
23768;SDS011;12064;50.890;5.424;2022-09-12T19:07:20;8.13;;;3.07;;
23768;SDS011;12064;50.890;5.424;2022-09-12T19:16:12;5.75;;;3.10;;
23768;SDS011;12064;50.890;5.424;2022-09-12T19:25:04;6.55;;;3.00;;
23768;SDS011;12064;50.890;5.424;2022-09-12T19:33:58;5.63;;;3.13;;
23768;SDS011;12064;50.890;5.424;2022-09-12T19:42:50;4.55;;;3.38;;
23768;SDS011;12064;50.890;5.424;2022-09-12T19:51:44;5.22;;;3.40;;
23768;SDS011;12064;50.890;5.424;2022-09-12T20:00:34;6.03;;;3.20;;
23768;SDS011;12064;50.890;5.424;2022-09-12T20:09:27;4.68;;;3.15;;
23768;SDS011;12064;50.890;5.424;2022-09-12T20:18:33;5.22;;;3.45;;
23768;SDS011;12064;50.890;5.424;2022-09-12T20:36:43;4.10;;;3.15;;
23768;SDS011;12064;50.890;5.424;2022-09-12T20:45:38;4.85;;;3.17;;
23768;SDS011;12064;50.890;5.424;2022-09-12T20:54:30;3.80;;;3.20;;
23768;SDS011;12064;50.890;5.424;2022-09-12T21:12:37;3.22;;;2.38;;
23768;SDS011;12064;50.890;5.424;2022-09-12T21:30:39;4.13;;;2.80;;
23768;SDS011;12064;50.890;5.424;2022-09-12T21:39:37;3.08;;;2.35;;
23768;SDS011;12064;50.890;5.424;2022-09-12T21:48:43;3.23;;;2.50;;
23768;SDS011;12064;50.890;5.424;2022-09-12T21:57:33;2.30;;;2.13;;
23768;SDS011;12064;50.890;5.424;2022-09-12T22:06:27;2.20;;;2.00;;
23768;SDS011;12064;50.890;5.424;2022-09-12T22:15:18;2.50;;;2.30;;
23768;SDS011;12064;50.890;5.424;2022-09-12T22:24:11;2.45;;;2.25;;
23768;SDS011;12064;50.890;5.424;2022-09-12T22:33:16;2.70;;;2.35;;
23768;SDS011;12064;50.890;5.424;2022-09-12T22:42:10;3.08;;;2.30;;
23768;SDS011;12064;50.890;5.424;2022-09-12T22:51:00;2.40;;;2.20;;
23768;SDS011;12064;50.890;5.424;2022-09-12T22:59:55;2.40;;;2.20;;
23768;SDS011;12064;50.890;5.424;2022-09-12T23:08:45;2.93;;;2.30;;
23768;SDS011;12064;50.890;5.424;2022-09-12T23:17:36;2.63;;;2.40;;
23768;SDS011;12064;50.890;5.424;2022-09-12T23:26:26;2.40;;;2.20;;
23768;SDS011;12064;50.890;5.424;2022-09-12T23:35:18;2.38;;;2.20;;
23768;SDS011;12064;50.890;5.424;2022-09-12T23:44:12;2.35;;;2.15;;
23768;SDS011;12064;50.890;5.424;2022-09-12T23:53:02;2.30;;;2.10;;
